sensor_id;sensor_type;location;lat;lon;timestamp;P1;durP1;ratioP1;P2;durP2;ratioP2
79365;SDS011;68833;53.160;17.920;2023-10-19T00:00:05;12.60;;;10.10;;
79365;SDS011;68833;53.160;17.920;2023-10-19T00:03:06;19.00;;;11.70;;
79365;SDS011;68833;53.160;17.920;2023-10-19T00:05:33;15.20;;;10.90;;
79365;SDS011;68833;53.160;17.920;2023-10-19T00:08:03;15.20;;;11.50;;
79365;SDS011;68833;53.160;17.920;2023-10-19T00:10:33;15.30;;;11.30;;
79365;SDS011;68833;53.160;17.920;2023-10-19T00:13:01;16.00;;;11.00;;
79365;SDS011;68833;53.160;17.920;2023-10-19T00:15:32;16.30;;;10.80;;
79365;SDS011;68833;53.160;17.920;2023-10-19T00:18:01;14.30;;;10.30;;
79365;SDS011;68833;53.160;17.920;2023-10-19T00:20:48;15.80;;;10.70;;
79365;SDS011;68833;53.160;17.920;2023-10-19T00:23:21;14.60;;;10.70;;
79365;SDS011;68833;53.160;17.920;2023-10-19T00:26:02;16.70;;;11.40;;
79365;SDS011;68833;53.160;17.920;2023-10-19T00:28:43;16.90;;;11.60;;
79365;SDS011;68833;53.160;17.920;2023-10-19T00:31:12;18.10;;;11.30;;
79365;SDS011;68833;53.160;17.920;2023-10-19T00:33:41;17.50;;;11.50;;
79365;SDS011;68833;53.160;17.920;2023-10-19T00:36:08;15.90;;;10.80;;
79365;SDS011;68833;53.160;17.920;2023-10-19T00:38:40;11.40;;;9.60;;
79365;SDS011;68833;53.160;17.920;2023-10-19T00:41:28;16.50;;;11.80;;
79365;SDS011;68833;53.160;17.920;2023-10-19T00:46:39;13.80;;;10.50;;
79365;SDS011;68833;53.160;17.920;2023-10-19T00:49:09;17.20;;;11.40;;
79365;SDS011;68833;53.160;17.920;2023-10-19T00:51:48;14.10;;;10.70;;
79365;SDS011;68833;53.160;17.920;2023-10-19T00:54:20;12.80;;;10.80;;
79365;SDS011;68833;53.160;17.920;2023-10-19T00:56:58;13.30;;;10.10;;
79365;SDS011;68833;53.160;17.920;2023-10-19T00:59:31;13.40;;;10.30;;
79365;SDS011;68833;53.160;17.920;2023-10-19T01:02:02;13.20;;;10.00;;
79365;SDS011;68833;53.160;17.920;2023-10-19T01:04:48;12.30;;;9.30;;
79365;SDS011;68833;53.160;17.920;2023-10-19T01:07:17;12.70;;;8.60;;
79365;SDS011;68833;53.160;17.920;2023-10-19T01:09:54;12.00;;;9.60;;
79365;SDS011;68833;53.160;17.920;2023-10-19T01:12:23;11.40;;;9.10;;
79365;SDS011;68833;53.160;17.920;2023-10-19T01:17:57;15.10;;;10.70;;
79365;SDS011;68833;53.160;17.920;2023-10-19T01:20:26;13.80;;;10.60;;
79365;SDS011;68833;53.160;17.920;2023-10-19T01:23:29;15.40;;;11.30;;
79365;SDS011;68833;53.160;17.920;2023-10-19T01:25:55;12.80;;;9.50;;
79365;SDS011;68833;53.160;17.920;2023-10-19T01:28:24;14.00;;;9.50;;
79365;SDS011;68833;53.160;17.920;2023-10-19T01:31:15;14.20;;;10.60;;
79365;SDS011;68833;53.160;17.920;2023-10-19T01:33:49;15.20;;;10.80;;
79365;SDS011;68833;53.160;17.920;2023-10-19T01:36:16;14.30;;;10.80;;
79365;SDS011;68833;53.160;17.920;2023-10-19T01:38:49;13.90;;;10.40;;
79365;SDS011;68833;53.160;17.920;2023-10-19T01:41:21;14.60;;;10.70;;
79365;SDS011;68833;53.160;17.920;2023-10-19T01:43:51;15.50;;;10.80;;
79365;SDS011;68833;53.160;17.920;2023-10-19T01:46:23;15.70;;;10.60;;
79365;SDS011;68833;53.160;17.920;2023-10-19T01:48:51;12.50;;;10.40;;
79365;SDS011;68833;53.160;17.920;2023-10-19T01:51:23;14.80;;;11.90;;
79365;SDS011;68833;53.160;17.920;2023-10-19T01:53:53;13.20;;;10.10;;
79365;SDS011;68833;53.160;17.920;2023-10-19T01:56:22;13.90;;;10.40;;
79365;SDS011;68833;53.160;17.920;2023-10-19T01:58:50;15.40;;;11.50;;
79365;SDS011;68833;53.160;17.920;2023-10-19T02:01:21;15.80;;;11.30;;
79365;SDS011;68833;53.160;17.920;2023-10-19T02:04:04;14.60;;;10.60;;
79365;SDS011;68833;53.160;17.920;2023-10-19T02:06:36;12.70;;;10.10;;
79365;SDS011;68833;53.160;17.920;2023-10-19T02:09:05;15.70;;;12.40;;
79365;SDS011;68833;53.160;17.920;2023-10-19T02:11:57;14.70;;;11.90;;
79365;SDS011;68833;53.160;17.920;2023-10-19T02:14:25;16.50;;;11.20;;
79365;SDS011;68833;53.160;17.920;2023-10-19T02:16:56;15.10;;;10.70;;
79365;SDS011;68833;53.160;17.920;2023-10-19T02:19:26;14.40;;;11.40;;
79365;SDS011;68833;53.160;17.920;2023-10-19T02:22:01;19.30;;;15.50;;
79365;SDS011;68833;53.160;17.920;2023-10-19T02:24:38;12.30;;;11.00;;
79365;SDS011;68833;53.160;17.920;2023-10-19T02:27:05;14.30;;;11.10;;
79365;SDS011;68833;53.160;17.920;2023-10-19T02:29:32;15.20;;;11.90;;
79365;SDS011;68833;53.160;17.920;2023-10-19T02:32:00;12.30;;;10.60;;
79365;SDS011;68833;53.160;17.920;2023-10-19T02:34:31;14.40;;;11.20;;
79365;SDS011;68833;53.160;17.920;2023-10-19T02:36:58;15.70;;;10.50;;
79365;SDS011;68833;53.160;17.920;2023-10-19T02:39:25;13.50;;;11.00;;
79365;SDS011;68833;53.160;17.920;2023-10-19T02:41:54;12.90;;;11.40;;
79365;SDS011;68833;53.160;17.920;2023-10-19T02:44:26;16.50;;;11.40;;
79365;SDS011;68833;53.160;17.920;2023-10-19T02:46:54;15.10;;;11.00;;
79365;SDS011;68833;53.160;17.920;2023-10-19T02:49:25;14.60;;;11.00;;
79365;SDS011;68833;53.160;17.920;2023-10-19T02:51:56;14.00;;;10.80;;
79365;SDS011;68833;53.160;17.920;2023-10-19T02:54:29;13.70;;;11.00;;
79365;SDS011;68833;53.160;17.920;2023-10-19T02:56:59;14.40;;;11.60;;
79365;SDS011;68833;53.160;17.920;2023-10-19T02:59:27;16.30;;;11.70;;
79365;SDS011;68833;53.160;17.920;2023-10-19T03:01:59;13.50;;;11.50;;
79365;SDS011;68833;53.160;17.920;2023-10-19T03:04:29;13.00;;;11.20;;
79365;SDS011;68833;53.160;17.920;2023-10-19T03:06:56;13.20;;;10.60;;
79365;SDS011;68833;53.160;17.920;2023-10-19T03:09:23;15.60;;;12.90;;
79365;SDS011;68833;53.160;17.920;2023-10-19T03:14:23;26.90;;;17.50;;
79365;SDS011;68833;53.160;17.920;2023-10-19T03:16:53;16.70;;;11.80;;
79365;SDS011;68833;53.160;17.920;2023-10-19T03:19:23;15.60;;;11.80;;
79365;SDS011;68833;53.160;17.920;2023-10-19T03:21:54;16.00;;;11.00;;
79365;SDS011;68833;53.160;17.920;2023-10-19T03:24:24;16.20;;;12.40;;
79365;SDS011;68833;53.160;17.920;2023-10-19T03:27:08;13.10;;;11.10;;
79365;SDS011;68833;53.160;17.920;2023-10-19T03:29:48;17.30;;;12.70;;
79365;SDS011;68833;53.160;17.920;2023-10-19T03:32:26;19.70;;;13.70;;
79365;SDS011;68833;53.160;17.920;2023-10-19T03:34:56;16.40;;;11.60;;
79365;SDS011;68833;53.160;17.920;2023-10-19T03:37:23;14.60;;;11.60;;
79365;SDS011;68833;53.160;17.920;2023-10-19T03:39:53;14.70;;;11.30;;
79365;SDS011;68833;53.160;17.920;2023-10-19T03:42:24;14.60;;;11.50;;
79365;SDS011;68833;53.160;17.920;2023-10-19T03:45:09;14.90;;;11.40;;
79365;SDS011;68833;53.160;17.920;2023-10-19T03:47:39;16.70;;;12.80;;
79365;SDS011;68833;53.160;17.920;2023-10-19T03:50:10;16.50;;;12.90;;
79365;SDS011;68833;53.160;17.920;2023-10-19T03:52:48;14.60;;;11.90;;
79365;SDS011;68833;53.160;17.920;2023-10-19T03:55:15;14.90;;;11.80;;
79365;SDS011;68833;53.160;17.920;2023-10-19T03:57:45;21.10;;;16.30;;
79365;SDS011;68833;53.160;17.920;2023-10-19T04:00:22;17.00;;;12.20;;
79365;SDS011;68833;53.160;17.920;2023-10-19T04:02:53;16.70;;;11.70;;
79365;SDS011;68833;53.160;17.920;2023-10-19T04:05:22;15.60;;;11.20;;
79365;SDS011;68833;53.160;17.920;2023-10-19T04:07:49;15.00;;;11.20;;
79365;SDS011;68833;53.160;17.920;2023-10-19T04:10:24;20.80;;;15.00;;
79365;SDS011;68833;53.160;17.920;2023-10-19T04:13:11;17.20;;;13.20;;
79365;SDS011;68833;53.160;17.920;2023-10-19T04:15:39;18.50;;;14.00;;
79365;SDS011;68833;53.160;17.920;2023-10-19T04:18:07;15.40;;;12.50;;
79365;SDS011;68833;53.160;17.920;2023-10-19T04:20:37;15.40;;;12.10;;
79365;SDS011;68833;53.160;17.920;2023-10-19T04:23:14;15.40;;;11.50;;
79365;SDS011;68833;53.160;17.920;2023-10-19T04:25:42;15.00;;;11.00;;
79365;SDS011;68833;53.160;17.920;2023-10-19T04:28:08;17.90;;;12.60;;
79365;SDS011;68833;53.160;17.920;2023-10-19T04:30:35;14.90;;;11.70;;
79365;SDS011;68833;53.160;17.920;2023-10-19T04:33:04;14.40;;;11.00;;
79365;SDS011;68833;53.160;17.920;2023-10-19T04:35:36;17.10;;;12.70;;
79365;SDS011;68833;53.160;17.920;2023-10-19T04:38:04;14.70;;;11.50;;
79365;SDS011;68833;53.160;17.920;2023-10-19T04:40:34;14.80;;;11.80;;
79365;SDS011;68833;53.160;17.920;2023-10-19T04:43:02;15.90;;;11.20;;
79365;SDS011;68833;53.160;17.920;2023-10-19T04:45:31;15.50;;;12.80;;
79365;SDS011;68833;53.160;17.920;2023-10-19T04:47:58;15.90;;;12.80;;
79365;SDS011;68833;53.160;17.920;2023-10-19T04:50:25;16.20;;;13.00;;
79365;SDS011;68833;53.160;17.920;2023-10-19T04:52:52;17.40;;;13.40;;
79365;SDS011;68833;53.160;17.920;2023-10-19T04:55:19;13.90;;;12.00;;
79365;SDS011;68833;53.160;17.920;2023-10-19T04:57:46;16.60;;;12.30;;
79365;SDS011;68833;53.160;17.920;2023-10-19T05:00:13;13.60;;;11.80;;
79365;SDS011;68833;53.160;17.920;2023-10-19T05:02:41;14.40;;;10.90;;
79365;SDS011;68833;53.160;17.920;2023-10-19T05:05:08;15.60;;;12.60;;
79365;SDS011;68833;53.160;17.920;2023-10-19T05:07:35;15.80;;;12.40;;
79365;SDS011;68833;53.160;17.920;2023-10-19T05:10:03;15.00;;;11.30;;
79365;SDS011;68833;53.160;17.920;2023-10-19T05:12:32;15.40;;;12.80;;
79365;SDS011;68833;53.160;17.920;2023-10-19T05:14:59;24.70;;;17.80;;
79365;SDS011;68833;53.160;17.920;2023-10-19T05:17:26;16.70;;;12.80;;
79365;SDS011;68833;53.160;17.920;2023-10-19T05:19:53;15.50;;;11.70;;
79365;SDS011;68833;53.160;17.920;2023-10-19T05:22:20;17.40;;;13.30;;
79365;SDS011;68833;53.160;17.920;2023-10-19T05:24:48;17.00;;;13.50;;
79365;SDS011;68833;53.160;17.920;2023-10-19T05:27:15;15.30;;;12.70;;
79365;SDS011;68833;53.160;17.920;2023-10-19T05:29:42;14.00;;;10.30;;
79365;SDS011;68833;53.160;17.920;2023-10-19T05:32:09;14.70;;;12.20;;
79365;SDS011;68833;53.160;17.920;2023-10-19T05:34:36;14.20;;;11.70;;
79365;SDS011;68833;53.160;17.920;2023-10-19T05:37:03;16.10;;;12.20;;
79365;SDS011;68833;53.160;17.920;2023-10-19T05:39:32;17.30;;;13.50;;
79365;SDS011;68833;53.160;17.920;2023-10-19T05:42:00;18.50;;;14.00;;
79365;SDS011;68833;53.160;17.920;2023-10-19T05:44:30;14.60;;;12.10;;
79365;SDS011;68833;53.160;17.920;2023-10-19T05:49:25;17.40;;;13.20;;
79365;SDS011;68833;53.160;17.920;2023-10-19T05:51:52;17.40;;;12.70;;
79365;SDS011;68833;53.160;17.920;2023-10-19T05:54:19;17.30;;;12.90;;
79365;SDS011;68833;53.160;17.920;2023-10-19T05:56:46;19.10;;;13.80;;
79365;SDS011;68833;53.160;17.920;2023-10-19T05:59:12;18.20;;;13.70;;
79365;SDS011;68833;53.160;17.920;2023-10-19T06:01:41;16.50;;;13.10;;
79365;SDS011;68833;53.160;17.920;2023-10-19T06:04:08;15.80;;;12.60;;
79365;SDS011;68833;53.160;17.920;2023-10-19T06:06:35;16.00;;;12.70;;
79365;SDS011;68833;53.160;17.920;2023-10-19T06:09:02;14.10;;;10.60;;
79365;SDS011;68833;53.160;17.920;2023-10-19T06:11:31;16.90;;;12.80;;
79365;SDS011;68833;53.160;17.920;2023-10-19T06:14:04;17.90;;;13.90;;
79365;SDS011;68833;53.160;17.920;2023-10-19T06:16:34;16.10;;;13.30;;
79365;SDS011;68833;53.160;17.920;2023-10-19T06:19:01;19.60;;;14.60;;
79365;SDS011;68833;53.160;17.920;2023-10-19T06:21:28;18.10;;;13.40;;
79365;SDS011;68833;53.160;17.920;2023-10-19T06:23:57;16.90;;;12.60;;
79365;SDS011;68833;53.160;17.920;2023-10-19T06:26:24;14.20;;;11.20;;
79365;SDS011;68833;53.160;17.920;2023-10-19T06:28:51;16.00;;;12.40;;
79365;SDS011;68833;53.160;17.920;2023-10-19T06:31:23;15.90;;;12.40;;
79365;SDS011;68833;53.160;17.920;2023-10-19T06:33:51;16.70;;;12.50;;
79365;SDS011;68833;53.160;17.920;2023-10-19T06:36:18;18.80;;;14.60;;
79365;SDS011;68833;53.160;17.920;2023-10-19T06:38:45;17.00;;;12.60;;
79365;SDS011;68833;53.160;17.920;2023-10-19T06:41:13;15.40;;;11.20;;
79365;SDS011;68833;53.160;17.920;2023-10-19T06:43:40;14.70;;;10.50;;
79365;SDS011;68833;53.160;17.920;2023-10-19T06:46:08;15.50;;;11.60;;
79365;SDS011;68833;53.160;17.920;2023-10-19T06:48:38;20.90;;;14.50;;
79365;SDS011;68833;53.160;17.920;2023-10-19T06:51:05;19.10;;;13.20;;
79365;SDS011;68833;53.160;17.920;2023-10-19T06:53:32;23.00;;;16.10;;
79365;SDS011;68833;53.160;17.920;2023-10-19T06:56:00;17.60;;;12.10;;
79365;SDS011;68833;53.160;17.920;2023-10-19T06:58:28;18.90;;;13.70;;
79365;SDS011;68833;53.160;17.920;2023-10-19T07:00:55;16.40;;;12.10;;
79365;SDS011;68833;53.160;17.920;2023-10-19T07:03:27;15.00;;;11.50;;
79365;SDS011;68833;53.160;17.920;2023-10-19T07:05:57;14.80;;;11.30;;
79365;SDS011;68833;53.160;17.920;2023-10-19T07:08:25;12.30;;;9.10;;
79365;SDS011;68833;53.160;17.920;2023-10-19T07:10:53;15.10;;;10.90;;
79365;SDS011;68833;53.160;17.920;2023-10-19T07:13:20;13.90;;;10.40;;
79365;SDS011;68833;53.160;17.920;2023-10-19T07:15:48;18.10;;;13.00;;
79365;SDS011;68833;53.160;17.920;2023-10-19T07:18:18;18.20;;;11.70;;
79365;SDS011;68833;53.160;17.920;2023-10-19T07:20:45;16.80;;;11.90;;
79365;SDS011;68833;53.160;17.920;2023-10-19T07:23:15;18.10;;;13.00;;
79365;SDS011;68833;53.160;17.920;2023-10-19T07:25:46;16.90;;;11.40;;
79365;SDS011;68833;53.160;17.920;2023-10-19T07:28:15;14.10;;;10.50;;
79365;SDS011;68833;53.160;17.920;2023-10-19T07:30:43;14.60;;;11.40;;
79365;SDS011;68833;53.160;17.920;2023-10-19T07:33:10;16.50;;;10.80;;
79365;SDS011;68833;53.160;17.920;2023-10-19T07:35:44;22.70;;;15.50;;
79365;SDS011;68833;53.160;17.920;2023-10-19T07:38:13;29.60;;;18.20;;
79365;SDS011;68833;53.160;17.920;2023-10-19T07:40:41;23.50;;;15.20;;
79365;SDS011;68833;53.160;17.920;2023-10-19T07:43:10;17.40;;;12.80;;
79365;SDS011;68833;53.160;17.920;2023-10-19T07:45:37;18.50;;;13.50;;
79365;SDS011;68833;53.160;17.920;2023-10-19T07:48:04;18.90;;;13.10;;
79365;SDS011;68833;53.160;17.920;2023-10-19T07:50:37;18.20;;;11.80;;
79365;SDS011;68833;53.160;17.920;2023-10-19T07:53:07;17.00;;;11.80;;
79365;SDS011;68833;53.160;17.920;2023-10-19T07:55:35;15.10;;;10.70;;
79365;SDS011;68833;53.160;17.920;2023-10-19T07:58:02;16.00;;;11.70;;
79365;SDS011;68833;53.160;17.920;2023-10-19T08:00:30;14.50;;;10.50;;
79365;SDS011;68833;53.160;17.920;2023-10-19T08:02:57;13.40;;;10.90;;
79365;SDS011;68833;53.160;17.920;2023-10-19T08:05:25;12.50;;;9.70;;
79365;SDS011;68833;53.160;17.920;2023-10-19T08:07:52;12.80;;;10.00;;
79365;SDS011;68833;53.160;17.920;2023-10-19T08:10:20;12.00;;;8.80;;
79365;SDS011;68833;53.160;17.920;2023-10-19T08:12:48;9.30;;;7.40;;
79365;SDS011;68833;53.160;17.920;2023-10-19T08:15:16;13.40;;;10.40;;
79365;SDS011;68833;53.160;17.920;2023-10-19T08:17:44;12.40;;;10.20;;
79365;SDS011;68833;53.160;17.920;2023-10-19T08:20:14;14.50;;;9.30;;
79365;SDS011;68833;53.160;17.920;2023-10-19T08:22:51;13.50;;;10.20;;
79365;SDS011;68833;53.160;17.920;2023-10-19T08:25:19;12.50;;;10.10;;
79365;SDS011;68833;53.160;17.920;2023-10-19T08:27:47;13.10;;;9.20;;
79365;SDS011;68833;53.160;17.920;2023-10-19T08:30:18;12.00;;;9.60;;
79365;SDS011;68833;53.160;17.920;2023-10-19T08:32:47;10.70;;;8.80;;
79365;SDS011;68833;53.160;17.920;2023-10-19T08:35:15;15.50;;;11.50;;
79365;SDS011;68833;53.160;17.920;2023-10-19T08:37:47;17.20;;;11.90;;
79365;SDS011;68833;53.160;17.920;2023-10-19T08:40:14;15.40;;;12.00;;
79365;SDS011;68833;53.160;17.920;2023-10-19T08:42:42;14.60;;;11.20;;
79365;SDS011;68833;53.160;17.920;2023-10-19T08:45:12;15.80;;;11.30;;
79365;SDS011;68833;53.160;17.920;2023-10-19T08:47:41;16.20;;;11.90;;
79365;SDS011;68833;53.160;17.920;2023-10-19T08:50:15;16.20;;;11.90;;
79365;SDS011;68833;53.160;17.920;2023-10-19T08:52:42;13.70;;;10.30;;
79365;SDS011;68833;53.160;17.920;2023-10-19T08:55:09;20.20;;;14.10;;
79365;SDS011;68833;53.160;17.920;2023-10-19T09:00:06;19.90;;;13.40;;
79365;SDS011;68833;53.160;17.920;2023-10-19T09:02:34;18.50;;;13.70;;
79365;SDS011;68833;53.160;17.920;2023-10-19T09:05:07;14.10;;;9.90;;
79365;SDS011;68833;53.160;17.920;2023-10-19T09:07:34;18.10;;;12.60;;
79365;SDS011;68833;53.160;17.920;2023-10-19T09:10:01;14.90;;;11.10;;
79365;SDS011;68833;53.160;17.920;2023-10-19T09:12:30;12.20;;;9.50;;
79365;SDS011;68833;53.160;17.920;2023-10-19T09:14:57;16.30;;;11.80;;
79365;SDS011;68833;53.160;17.920;2023-10-19T09:17:28;37.90;;;23.80;;
79365;SDS011;68833;53.160;17.920;2023-10-19T09:19:56;17.80;;;12.20;;
79365;SDS011;68833;53.160;17.920;2023-10-19T09:22:26;19.50;;;11.80;;
79365;SDS011;68833;53.160;17.920;2023-10-19T09:24:53;15.70;;;10.60;;
79365;SDS011;68833;53.160;17.920;2023-10-19T09:27:22;11.10;;;8.60;;
79365;SDS011;68833;53.160;17.920;2023-10-19T09:29:49;10.40;;;8.00;;
79365;SDS011;68833;53.160;17.920;2023-10-19T09:32:19;14.00;;;11.10;;
79365;SDS011;68833;53.160;17.920;2023-10-19T09:34:46;14.10;;;11.00;;
79365;SDS011;68833;53.160;17.920;2023-10-19T09:37:14;14.40;;;10.70;;
79365;SDS011;68833;53.160;17.920;2023-10-19T09:39:42;13.80;;;10.00;;
79365;SDS011;68833;53.160;17.920;2023-10-19T09:42:10;15.80;;;11.30;;
79365;SDS011;68833;53.160;17.920;2023-10-19T09:44:41;13.40;;;9.50;;
79365;SDS011;68833;53.160;17.920;2023-10-19T09:47:11;11.40;;;8.10;;
79365;SDS011;68833;53.160;17.920;2023-10-19T09:49:40;15.20;;;10.90;;
79365;SDS011;68833;53.160;17.920;2023-10-19T09:52:10;13.90;;;10.60;;
79365;SDS011;68833;53.160;17.920;2023-10-19T09:54:47;16.10;;;10.50;;
79365;SDS011;68833;53.160;17.920;2023-10-19T09:57:28;20.40;;;11.00;;
79365;SDS011;68833;53.160;17.920;2023-10-19T10:00:02;12.00;;;9.30;;
79365;SDS011;68833;53.160;17.920;2023-10-19T10:03:46;14.60;;;11.30;;
79365;SDS011;68833;53.160;17.920;2023-10-19T10:06:27;21.30;;;16.60;;
79365;SDS011;68833;53.160;17.920;2023-10-19T10:08:54;18.20;;;13.50;;
79365;SDS011;68833;53.160;17.920;2023-10-19T10:11:23;17.00;;;13.60;;
79365;SDS011;68833;53.160;17.920;2023-10-19T10:13:54;16.90;;;13.40;;
79365;SDS011;68833;53.160;17.920;2023-10-19T10:16:23;16.90;;;13.00;;
79365;SDS011;68833;53.160;17.920;2023-10-19T10:18:57;18.60;;;13.90;;
79365;SDS011;68833;53.160;17.920;2023-10-19T10:21:27;21.30;;;15.80;;
79365;SDS011;68833;53.160;17.920;2023-10-19T10:23:59;19.10;;;14.00;;
79365;SDS011;68833;53.160;17.920;2023-10-19T10:26:30;15.10;;;12.70;;
79365;SDS011;68833;53.160;17.920;2023-10-19T10:31:42;17.90;;;13.40;;
79365;SDS011;68833;53.160;17.920;2023-10-19T10:37:05;13.20;;;10.40;;
79365;SDS011;68833;53.160;17.920;2023-10-19T10:39:37;16.90;;;11.40;;
79365;SDS011;68833;53.160;17.920;2023-10-19T10:42:10;14.80;;;10.90;;
79365;SDS011;68833;53.160;17.920;2023-10-19T10:47:23;11.50;;;9.20;;
79365;SDS011;68833;53.160;17.920;2023-10-19T10:49:57;12.90;;;10.50;;
79365;SDS011;68833;53.160;17.920;2023-10-19T10:57:34;11.70;;;8.30;;
79365;SDS011;68833;53.160;17.920;2023-10-19T11:00:10;11.30;;;9.30;;
79365;SDS011;68833;53.160;17.920;2023-10-19T11:03:03;8.90;;;8.00;;
79365;SDS011;68833;53.160;17.920;2023-10-19T11:05:34;11.60;;;8.90;;
79365;SDS011;68833;53.160;17.920;2023-10-19T11:10:33;8.50;;;7.20;;
79365;SDS011;68833;53.160;17.920;2023-10-19T11:13:01;11.10;;;8.30;;
79365;SDS011;68833;53.160;17.920;2023-10-19T11:15:28;10.30;;;8.10;;
79365;SDS011;68833;53.160;17.920;2023-10-19T11:17:56;14.90;;;11.10;;
79365;SDS011;68833;53.160;17.920;2023-10-19T11:20:24;9.50;;;8.20;;
79365;SDS011;68833;53.160;17.920;2023-10-19T11:22:52;8.20;;;7.20;;
79365;SDS011;68833;53.160;17.920;2023-10-19T11:25:25;8.30;;;6.00;;
79365;SDS011;68833;53.160;17.920;2023-10-19T11:27:58;13.00;;;9.70;;
79365;SDS011;68833;53.160;17.920;2023-10-19T11:30:27;8.80;;;7.40;;
79365;SDS011;68833;53.160;17.920;2023-10-19T11:32:55;8.60;;;6.70;;
79365;SDS011;68833;53.160;17.920;2023-10-19T11:35:29;13.90;;;10.50;;
79365;SDS011;68833;53.160;17.920;2023-10-19T11:37:58;15.30;;;9.40;;
79365;SDS011;68833;53.160;17.920;2023-10-19T11:40:26;11.10;;;7.70;;
79365;SDS011;68833;53.160;17.920;2023-10-19T11:42:54;9.10;;;7.10;;
79365;SDS011;68833;53.160;17.920;2023-10-19T11:45:27;11.00;;;7.30;;
79365;SDS011;68833;53.160;17.920;2023-10-19T11:47:55;9.90;;;7.60;;
79365;SDS011;68833;53.160;17.920;2023-10-19T11:50:23;8.30;;;6.20;;
79365;SDS011;68833;53.160;17.920;2023-10-19T11:52:51;7.10;;;5.20;;
79365;SDS011;68833;53.160;17.920;2023-10-19T11:55:19;13.10;;;8.00;;
79365;SDS011;68833;53.160;17.920;2023-10-19T11:57:47;10.90;;;8.30;;
79365;SDS011;68833;53.160;17.920;2023-10-19T12:00:14;9.00;;;7.30;;
79365;SDS011;68833;53.160;17.920;2023-10-19T12:02:48;8.70;;;7.20;;
79365;SDS011;68833;53.160;17.920;2023-10-19T12:05:15;10.90;;;7.70;;
79365;SDS011;68833;53.160;17.920;2023-10-19T12:07:42;8.70;;;7.20;;
79365;SDS011;68833;53.160;17.920;2023-10-19T12:10:11;8.90;;;7.10;;
79365;SDS011;68833;53.160;17.920;2023-10-19T12:12:39;8.20;;;6.40;;
79365;SDS011;68833;53.160;17.920;2023-10-19T12:15:06;11.10;;;8.60;;
79365;SDS011;68833;53.160;17.920;2023-10-19T12:17:34;11.80;;;8.80;;
79365;SDS011;68833;53.160;17.920;2023-10-19T12:20:01;11.50;;;8.80;;
79365;SDS011;68833;53.160;17.920;2023-10-19T12:22:28;10.80;;;7.50;;
79365;SDS011;68833;53.160;17.920;2023-10-19T12:24:58;6.50;;;5.70;;
79365;SDS011;68833;53.160;17.920;2023-10-19T12:27:25;7.40;;;6.60;;
79365;SDS011;68833;53.160;17.920;2023-10-19T12:29:52;7.70;;;6.40;;
79365;SDS011;68833;53.160;17.920;2023-10-19T12:32:19;10.10;;;7.10;;
79365;SDS011;68833;53.160;17.920;2023-10-19T12:34:46;10.40;;;8.80;;
79365;SDS011;68833;53.160;17.920;2023-10-19T12:37:16;10.00;;;7.60;;
79365;SDS011;68833;53.160;17.920;2023-10-19T12:39:45;9.80;;;7.20;;
79365;SDS011;68833;53.160;17.920;2023-10-19T12:42:15;9.30;;;7.80;;
79365;SDS011;68833;53.160;17.920;2023-10-19T12:44:42;13.10;;;9.80;;
79365;SDS011;68833;53.160;17.920;2023-10-19T12:47:10;9.20;;;7.00;;
79365;SDS011;68833;53.160;17.920;2023-10-19T12:49:40;12.80;;;8.90;;
79365;SDS011;68833;53.160;17.920;2023-10-19T12:52:08;11.70;;;8.60;;
79365;SDS011;68833;53.160;17.920;2023-10-19T12:54:38;9.40;;;7.60;;
79365;SDS011;68833;53.160;17.920;2023-10-19T12:57:05;7.60;;;6.60;;
79365;SDS011;68833;53.160;17.920;2023-10-19T12:59:36;6.40;;;5.80;;
79365;SDS011;68833;53.160;17.920;2023-10-19T13:04:35;5.50;;;4.90;;
79365;SDS011;68833;53.160;17.920;2023-10-19T13:07:03;8.10;;;7.00;;
79365;SDS011;68833;53.160;17.920;2023-10-19T13:09:30;8.00;;;6.50;;
79365;SDS011;68833;53.160;17.920;2023-10-19T13:14:27;6.90;;;6.00;;
79365;SDS011;68833;53.160;17.920;2023-10-19T13:16:54;6.10;;;5.10;;
79365;SDS011;68833;53.160;17.920;2023-10-19T13:19:21;8.50;;;6.80;;
79365;SDS011;68833;53.160;17.920;2023-10-19T13:21:51;7.80;;;6.70;;
79365;SDS011;68833;53.160;17.920;2023-10-19T13:24:19;10.90;;;7.80;;
79365;SDS011;68833;53.160;17.920;2023-10-19T13:26:49;9.00;;;7.50;;
79365;SDS011;68833;53.160;17.920;2023-10-19T13:29:17;9.70;;;7.80;;
79365;SDS011;68833;53.160;17.920;2023-10-19T13:31:46;9.90;;;8.30;;
79365;SDS011;68833;53.160;17.920;2023-10-19T13:34:17;9.70;;;8.50;;
79365;SDS011;68833;53.160;17.920;2023-10-19T13:36:44;12.70;;;8.20;;
79365;SDS011;68833;53.160;17.920;2023-10-19T13:39:13;10.20;;;6.50;;
79365;SDS011;68833;53.160;17.920;2023-10-19T13:41:43;6.10;;;5.10;;
79365;SDS011;68833;53.160;17.920;2023-10-19T13:44:10;8.60;;;6.60;;
79365;SDS011;68833;53.160;17.920;2023-10-19T13:46:38;9.00;;;7.70;;
79365;SDS011;68833;53.160;17.920;2023-10-19T13:49:05;10.00;;;8.10;;
79365;SDS011;68833;53.160;17.920;2023-10-19T13:51:32;6.80;;;5.60;;
79365;SDS011;68833;53.160;17.920;2023-10-19T13:53:59;5.50;;;4.90;;
79365;SDS011;68833;53.160;17.920;2023-10-19T13:56:26;6.70;;;5.40;;
79365;SDS011;68833;53.160;17.920;2023-10-19T13:58:53;7.10;;;5.70;;
79365;SDS011;68833;53.160;17.920;2023-10-19T14:01:21;7.30;;;5.80;;
79365;SDS011;68833;53.160;17.920;2023-10-19T14:03:54;11.60;;;8.90;;
79365;SDS011;68833;53.160;17.920;2023-10-19T14:06:24;8.00;;;6.40;;
79365;SDS011;68833;53.160;17.920;2023-10-19T14:08:52;10.20;;;8.30;;
79365;SDS011;68833;53.160;17.920;2023-10-19T14:11:19;6.00;;;5.40;;
79365;SDS011;68833;53.160;17.920;2023-10-19T14:13:48;5.20;;;4.50;;
79365;SDS011;68833;53.160;17.920;2023-10-19T14:16:16;7.60;;;6.80;;
79365;SDS011;68833;53.160;17.920;2023-10-19T14:18:43;7.60;;;6.70;;
79365;SDS011;68833;53.160;17.920;2023-10-19T14:21:14;6.40;;;5.00;;
79365;SDS011;68833;53.160;17.920;2023-10-19T14:23:43;9.80;;;8.50;;
79365;SDS011;68833;53.160;17.920;2023-10-19T14:26:11;6.20;;;5.30;;
79365;SDS011;68833;53.160;17.920;2023-10-19T14:28:38;8.60;;;6.60;;
79365;SDS011;68833;53.160;17.920;2023-10-19T14:31:06;5.40;;;4.30;;
79365;SDS011;68833;53.160;17.920;2023-10-19T14:33:37;5.20;;;4.40;;
79365;SDS011;68833;53.160;17.920;2023-10-19T14:36:04;6.20;;;4.60;;
79365;SDS011;68833;53.160;17.920;2023-10-19T14:38:32;4.40;;;3.30;;
79365;SDS011;68833;53.160;17.920;2023-10-19T14:40:59;4.90;;;3.90;;
79365;SDS011;68833;53.160;17.920;2023-10-19T14:43:26;5.90;;;4.50;;
79365;SDS011;68833;53.160;17.920;2023-10-19T14:45:55;6.40;;;4.80;;
79365;SDS011;68833;53.160;17.920;2023-10-19T14:48:24;4.90;;;4.20;;
79365;SDS011;68833;53.160;17.920;2023-10-19T14:50:51;4.40;;;3.60;;
79365;SDS011;68833;53.160;17.920;2023-10-19T14:53:18;4.30;;;3.40;;
79365;SDS011;68833;53.160;17.920;2023-10-19T14:55:45;5.20;;;4.50;;
79365;SDS011;68833;53.160;17.920;2023-10-19T14:58:14;6.30;;;5.30;;
79365;SDS011;68833;53.160;17.920;2023-10-19T15:00:41;6.70;;;5.70;;
79365;SDS011;68833;53.160;17.920;2023-10-19T15:03:21;4.10;;;3.60;;
79365;SDS011;68833;53.160;17.920;2023-10-19T15:05:50;4.40;;;4.00;;